Cross Lake, New York
Current Conditions -  °F | °C
As of 9:54 PM on Wednesday 26 Nov 2014 (Local Time) from KSYR Reporting Station
Light Snow Light Snow  
Wind Chill: 22°   Ceiling: 3600
Heat Index: 29°   Visibility: 3mi
Dew Point: 27°   Wind: 7mph
Humidity: 92%   Direction: 300°WNW
Pressure: 30"   Gusts: NA
Location:  43.0684°N, 76.4638°W
Report Text: KSYR 270254Z 30006KT 3SM -SN BR FEW007 OVC036 M02/M03 A3000 RMK AO2 SLP160 FEW V SCT P0001 60004 T10171028 58018
Loading
Personal Weather Stations






























Interactive Weather Map New forecast layout! Learn more

10-Day Weather Forecast

Advertisements
Track Severe Weather on mobile